createdAt,value
2022-08-03T00:01:38.988Z,6.63
2022-08-03T00:04:07.519Z,3.30
2022-08-03T00:06:38.195Z,3.47
2022-08-03T00:09:07.347Z,3.90
2022-08-03T00:11:35.656Z,3.93
2022-08-03T00:14:03.891Z,4.43
2022-08-03T00:16:32.022Z,4.07
2022-08-03T00:19:00.747Z,4.70
2022-08-03T00:21:29.177Z,3.70
2022-08-03T00:23:58.597Z,3.70
2022-08-03T00:26:26.676Z,3.83
2022-08-03T00:28:54.741Z,4.00
2022-08-03T00:31:39.915Z,4.13
2022-08-03T00:34:11.271Z,4.40
2022-08-03T00:36:41.124Z,3.63
2022-08-03T00:39:10.852Z,4.57
2022-08-03T00:41:40.058Z,3.53
2022-08-03T00:44:08.147Z,3.53
2022-08-03T00:46:36.246Z,4.17
2022-08-03T00:49:04.384Z,3.83
2022-08-03T00:51:34.747Z,3.73
2022-08-03T00:54:03.028Z,3.87
2022-08-03T00:56:33.086Z,3.90
2022-08-03T00:59:01.458Z,3.97
2022-08-03T01:01:32.607Z,3.87
2022-08-03T01:04:01.203Z,4.10
2022-08-03T01:06:42.188Z,5.30
2022-08-03T01:09:20.053Z,3.43
2022-08-03T01:12:00.947Z,4.30
2022-08-03T01:14:35.304Z,5.93
2022-08-03T01:17:11.635Z,3.60
2022-08-03T01:19:47.936Z,4.33
2022-08-03T01:22:32.597Z,3.30
2022-08-03T01:25:07.405Z,3.50
2022-08-03T01:27:52.549Z,3.43
2022-08-03T01:30:23.784Z,4.10
2022-08-03T01:33:01.869Z,4.77
2022-08-03T01:35:38.408Z,4.07
2022-08-03T01:38:12.513Z,4.57
2022-08-03T01:40:42.781Z,4.57
2022-08-03T01:43:14.490Z,4.70
2022-08-03T01:46:05.319Z,3.70
2022-08-03T01:48:34.337Z,5.23
2022-08-03T01:51:03.026Z,4.20
2022-08-03T01:53:33.789Z,5.23
2022-08-03T01:56:03.650Z,3.70
2022-08-03T01:58:33.341Z,3.37
2022-08-03T02:01:04.645Z,4.93
2022-08-03T02:03:34.947Z,4.33
2022-08-03T02:07:00.668Z,5.30
2022-08-03T02:08:55.921Z,3.70
2022-08-03T02:11:24.191Z,4.33
2022-08-03T02:13:52.631Z,4.13
2022-08-03T02:16:24.701Z,4.60
2022-08-03T02:18:53.666Z,4.57
2022-08-03T02:21:56.271Z,4.40
2022-08-03T02:24:12.435Z,5.10
2022-08-03T02:26:41.982Z,4.73
2022-08-03T02:29:16.837Z,4.63
2022-08-03T02:31:48.064Z,4.40
2022-08-03T02:34:17.941Z,4.67
2022-08-03T02:36:50.649Z,4.50
2022-08-03T02:39:23.012Z,4.83
2022-08-03T02:41:53.570Z,4.57
2022-08-03T02:44:25.778Z,3.80
2022-08-03T02:46:58.615Z,5.67
2022-08-03T02:49:50.776Z,5.17
2022-08-03T02:52:17.038Z,4.57
2022-08-03T02:54:47.032Z,3.97
2022-08-03T02:57:16.416Z,5.80
2022-08-03T02:59:45.407Z,4.83
2022-08-03T03:02:17.063Z,3.90
2022-08-03T03:05:56.235Z,4.00
2022-08-03T03:07:48.578Z,4.00
2022-08-03T03:10:21.159Z,3.97
2022-08-03T03:12:51.231Z,4.90
2022-08-03T03:15:20.050Z,4.17
2022-08-03T03:17:51.043Z,4.53
2022-08-03T03:20:29.381Z,4.87
2022-08-03T03:23:00.341Z,4.67
2022-08-03T03:25:29.378Z,4.80
2022-08-03T03:27:57.840Z,4.63
2022-08-03T03:30:26.994Z,4.10
2022-08-03T03:32:56.854Z,4.10
2022-08-03T03:35:25.229Z,4.23
2022-08-03T03:37:53.606Z,4.27
2022-08-03T03:40:24.877Z,4.73
2022-08-03T03:42:53.192Z,5.43
2022-08-03T03:45:22.726Z,4.97
2022-08-03T03:47:51.132Z,4.53
2022-08-03T03:50:21.579Z,5.90
2022-08-03T03:52:49.651Z,6.37
2022-08-03T03:55:19.035Z,5.90
2022-08-03T03:57:47.166Z,5.30
2022-08-03T04:00:17.033Z,5.10
2022-08-03T04:02:45.649Z,4.80
2022-08-03T04:05:31.998Z,5.60
2022-08-03T04:08:21.768Z,4.07
2022-08-03T04:11:00.556Z,4.17
2022-08-03T04:13:32.996Z,5.73
2022-08-03T04:16:02.192Z,5.33
2022-08-03T04:18:33.598Z,4.90
2022-08-03T04:21:04.548Z,4.57
2022-08-03T04:23:36.698Z,5.13
2022-08-03T04:26:09.580Z,4.93
2022-08-03T04:28:38.588Z,4.53
2022-08-03T04:31:08.449Z,4.90
2022-08-03T04:33:39.526Z,4.90
2022-08-03T04:36:12.235Z,4.93
2022-08-03T04:38:50.552Z,5.93
2022-08-03T04:41:20.778Z,7.20
2022-08-03T04:43:50.226Z,5.17
2022-08-03T04:46:19.677Z,4.90
2022-08-03T04:48:48.021Z,14.97
2022-08-03T04:51:16.483Z,5.23
2022-08-03T04:53:45.959Z,4.73
2022-08-03T04:56:14.114Z,5.93
2022-08-03T04:58:42.185Z,5.10
2022-08-03T05:01:10.419Z,5.27
2022-08-03T05:03:38.561Z,5.27
2022-08-03T05:06:11.408Z,5.53
2022-08-03T05:08:45.919Z,6.70
2022-08-03T05:11:16.622Z,7.63
2022-08-03T05:13:45.115Z,6.23
2022-08-03T05:16:13.915Z,6.90
2022-08-03T05:18:42.299Z,10.13
2022-08-03T05:21:10.789Z,5.60
2022-08-03T05:23:38.799Z,5.50
2022-08-03T05:26:06.872Z,6.70
2022-08-03T05:28:36.241Z,5.90
2022-08-03T05:31:04.302Z,5.37
2022-08-03T05:33:32.461Z,5.60
2022-08-03T05:36:04.306Z,5.97
2022-08-03T05:38:34.744Z,5.90
2022-08-03T05:41:22.906Z,6.27
2022-08-03T05:43:54.107Z,5.90
2022-08-03T05:46:22.446Z,5.30
2022-08-03T05:48:50.902Z,5.20
2022-08-03T05:51:19.088Z,5.47
2022-08-03T05:53:47.163Z,4.50
2022-08-03T05:56:16.549Z,5.37
2022-08-03T05:58:46.808Z,5.10
2022-08-03T06:01:17.873Z,8.43
2022-08-03T06:03:46.078Z,5.00
2022-08-03T06:06:14.440Z,4.20
2022-08-03T06:08:43.013Z,4.67
2022-08-03T06:11:11.218Z,4.87
2022-08-03T06:13:40.024Z,3.83
2022-08-03T06:16:08.147Z,4.63
2022-08-03T06:18:38.886Z,4.30
2022-08-03T06:21:14.075Z,4.23
2022-08-03T06:23:54.307Z,5.47
2022-08-03T06:26:28.676Z,3.60
2022-08-03T06:28:57.417Z,4.50
2022-08-03T06:31:33.436Z,4.20
2022-08-03T06:34:34.262Z,3.80
2022-08-03T06:36:53.011Z,3.70
2022-08-03T06:39:23.724Z,4.70
2022-08-03T06:41:53.528Z,5.17
2022-08-03T06:44:21.876Z,3.67
2022-08-03T06:46:51.193Z,3.50
2022-08-03T06:49:20.948Z,4.70
2022-08-03T06:52:03.000Z,5.50
2022-08-03T06:54:36.124Z,4.93
2022-08-03T06:57:05.241Z,4.93
2022-08-03T07:00:08.644Z,4.23
2022-08-03T07:02:21.505Z,4.83
2022-08-03T07:04:51.143Z,4.43
2022-08-03T07:07:20.625Z,4.43
2022-08-03T07:09:56.753Z,5.60
2022-08-03T07:12:27.520Z,4.77
2022-08-03T07:15:00.708Z,5.97
2022-08-03T07:17:30.483Z,4.60
2022-08-03T07:20:00.498Z,5.70
2022-08-03T07:22:29.449Z,3.93
2022-08-03T07:24:57.677Z,3.90
2022-08-03T07:27:26.997Z,6.20
2022-08-03T07:29:55.874Z,6.00
2022-08-03T07:32:24.129Z,4.13
2022-08-03T07:34:56.946Z,4.50
2022-08-03T07:37:33.172Z,4.17
2022-08-03T07:40:01.958Z,5.43
2022-08-03T07:42:30.846Z,4.63
2022-08-03T07:44:59.175Z,5.50
2022-08-03T07:47:35.066Z,4.97
2022-08-03T07:50:05.032Z,3.33
2022-08-03T07:52:49.514Z,3.40
2022-08-03T07:55:18.262Z,3.60
2022-08-03T07:57:46.467Z,4.13
2022-08-03T08:00:17.052Z,3.40
2022-08-03T08:02:45.723Z,3.93
2022-08-03T08:05:14.262Z,3.70
2022-08-03T08:07:43.668Z,4.30
2022-08-03T08:10:12.274Z,5.67
2022-08-03T08:12:41.619Z,3.67
2022-08-03T08:15:10.249Z,3.20
2022-08-03T08:17:45.960Z,4.23
2022-08-03T08:20:23.781Z,3.40
2022-08-03T08:23:01.230Z,3.03
2022-08-03T08:25:31.039Z,3.50
2022-08-03T08:28:29.371Z,2.97
2022-08-03T08:30:50.218Z,6.23
2022-08-03T08:33:23.058Z,2.27
2022-08-03T08:35:53.482Z,3.20
2022-08-03T08:38:23.193Z,2.23
2022-08-03T08:40:51.775Z,3.47
2022-08-03T08:43:19.824Z,2.40
2022-08-03T08:45:50.080Z,1.90
2022-08-03T08:48:23.410Z,3.03
2022-08-03T08:50:54.397Z,1.60
2022-08-03T08:53:27.580Z,1.57
2022-08-03T08:56:00.758Z,2.70
2022-08-03T08:58:32.165Z,2.20
2022-08-03T09:01:00.391Z,2.83
2022-08-03T09:03:29.855Z,2.60
2022-08-03T09:06:02.355Z,3.00
2022-08-03T09:08:33.274Z,2.73
2022-08-03T09:11:01.661Z,1.77
2022-08-03T09:13:30.596Z,1.93
2022-08-03T09:16:15.528Z,2.30
2022-08-03T09:18:44.576Z,2.00
2022-08-03T09:21:34.489Z,1.83
2022-08-03T09:24:12.961Z,2.90
2022-08-03T09:26:53.700Z,2.27
2022-08-03T09:29:23.687Z,2.27
2022-08-03T09:32:01.816Z,2.23
2022-08-03T09:34:30.512Z,1.40
2022-08-03T09:36:58.966Z,2.30
2022-08-03T09:39:41.016Z,2.00
2022-08-03T09:42:14.872Z,1.70
2022-08-03T09:44:45.287Z,1.83
2022-08-03T09:47:16.116Z,4.07
2022-08-03T09:49:59.081Z,1.70
2022-08-03T09:52:39.006Z,2.00
2022-08-03T09:56:01.614Z,1.80
2022-08-03T09:58:10.417Z,3.77
2022-08-03T10:00:55.624Z,2.03
2022-08-03T10:03:24.141Z,3.10
2022-08-03T10:05:57.453Z,2.90
2022-08-03T10:08:27.189Z,2.80
2022-08-03T10:10:58.555Z,2.47
2022-08-03T10:13:26.667Z,1.97
2022-08-03T10:16:21.661Z,1.83
2022-08-03T10:18:42.995Z,2.70
2022-08-03T10:21:17.594Z,1.60
2022-08-03T10:23:46.683Z,1.40
2022-08-03T10:26:23.606Z,4.80
2022-08-03T10:28:55.185Z,3.77
2022-08-03T10:31:25.011Z,2.37
2022-08-03T10:33:59.001Z,1.60
2022-08-03T10:36:31.442Z,2.23
2022-08-03T10:39:01.241Z,1.80
2022-08-03T10:41:36.798Z,1.63
2022-08-03T10:44:07.848Z,2.70
2022-08-03T10:46:40.332Z,1.90
2022-08-03T10:49:14.985Z,2.90
2022-08-03T10:51:43.777Z,3.00
2022-08-03T10:54:59.677Z,1.93
2022-08-03T10:57:48.779Z,2.33
2022-08-03T11:00:18.689Z,2.50
2022-08-03T11:03:18.671Z,2.50
2022-08-03T11:05:48.313Z,2.13
2022-08-03T11:08:21.303Z,2.00
2022-08-03T11:10:50.131Z,2.20
2022-08-03T11:13:21.395Z,1.80
2022-08-03T11:15:52.694Z,2.90
2022-08-03T11:18:21.056Z,3.90
2022-08-03T11:20:56.246Z,1.80
2022-08-03T11:24:05.225Z,1.90
2022-08-03T11:26:31.302Z,3.70
2022-08-03T11:29:30.424Z,3.30
2022-08-03T11:31:58.623Z,3.10
2022-08-03T11:34:27.192Z,1.67
2022-08-03T11:37:27.249Z,2.73
2022-08-03T11:39:58.337Z,2.00
2022-08-03T11:42:48.549Z,1.73
2022-08-03T11:45:19.927Z,2.37
2022-08-03T11:47:51.448Z,1.67
2022-08-03T11:50:21.297Z,3.03
2022-08-03T11:52:51.859Z,1.83
2022-08-03T11:55:22.016Z,2.37
2022-08-03T11:59:00.885Z,2.63
2022-08-03T12:00:40.638Z,2.20
2022-08-03T12:03:11.141Z,2.77
2022-08-03T12:05:51.394Z,1.73
2022-08-03T12:08:32.211Z,2.23
2022-08-03T12:11:03.087Z,2.47
2022-08-03T12:14:44.307Z,2.00
2022-08-03T12:16:31.611Z,1.97
2022-08-03T12:19:01.383Z,2.67
2022-08-03T12:21:30.784Z,2.27
2022-08-03T12:24:00.492Z,2.30
2022-08-03T12:26:29.667Z,3.37
2022-08-03T12:28:58.430Z,2.90
2022-08-03T12:31:26.821Z,2.37
2022-08-03T12:34:03.671Z,1.87
2022-08-03T12:36:34.071Z,1.80
2022-08-03T12:39:05.627Z,2.23
2022-08-03T12:41:35.865Z,3.00
2022-08-03T12:44:05.017Z,3.20
2022-08-03T12:46:35.725Z,4.17
2022-08-03T12:49:11.105Z,6.13
2022-08-03T12:51:57.377Z,2.30
2022-08-03T12:54:26.613Z,2.37
2022-08-03T12:57:01.975Z,2.30
2022-08-03T12:59:34.887Z,2.20
2022-08-03T13:02:09.376Z,1.77
2022-08-03T13:04:39.329Z,2.60
2022-08-03T13:07:14.085Z,1.90
2022-08-03T13:09:44.248Z,3.03
2022-08-03T13:12:14.608Z,2.70
2022-08-03T13:14:43.863Z,2.20
2022-08-03T13:17:12.100Z,2.47
2022-08-03T13:19:41.973Z,2.30
2022-08-03T13:22:13.746Z,1.57
2022-08-03T13:24:41.913Z,2.63
2022-08-03T13:28:02.149Z,2.20
2022-08-03T13:29:59.741Z,2.07
2022-08-03T13:32:27.866Z,3.50
2022-08-03T13:34:57.250Z,2.60
2022-08-03T13:37:25.705Z,3.07
2022-08-03T13:39:58.768Z,2.00
2022-08-03T13:42:30.462Z,2.37
2022-08-03T13:44:59.033Z,4.30
2022-08-03T13:47:27.579Z,2.50
2022-08-03T13:50:00.947Z,4.60
2022-08-03T13:52:32.652Z,2.53
2022-08-03T13:55:01.012Z,2.30
2022-08-03T13:58:03.675Z,5.43
2022-08-03T14:00:27.024Z,2.70
2022-08-03T14:03:02.711Z,2.80
2022-08-03T14:05:33.103Z,2.67
2022-08-03T14:08:04.983Z,2.53
2022-08-03T14:10:34.031Z,2.03
2022-08-03T14:13:02.127Z,1.57
2022-08-03T14:15:30.117Z,2.37
2022-08-03T14:17:59.079Z,2.30
2022-08-03T14:20:38.050Z,5.27
2022-08-03T14:23:09.248Z,3.30
2022-08-03T14:25:43.624Z,1.97
2022-08-03T14:28:19.303Z,2.60
2022-08-03T14:30:48.588Z,3.60
2022-08-03T14:33:16.868Z,2.90
2022-08-03T14:35:44.938Z,2.00
2022-08-03T14:38:14.368Z,2.43
2022-08-03T14:40:42.625Z,2.20
2022-08-03T14:43:10.685Z,2.27
2022-08-03T14:45:39.243Z,2.20
2022-08-03T14:50:30.061Z,2.23
2022-08-03T14:50:56.772Z,3.07
2022-08-03T14:53:26.343Z,3.67
2022-08-03T14:55:54.455Z,2.13
2022-08-03T14:58:25.285Z,1.80
2022-08-03T15:00:55.485Z,2.77
2022-08-03T15:03:25.267Z,2.37
2022-08-03T15:05:54.240Z,2.90
2022-08-03T15:08:23.348Z,2.97
2022-08-03T15:10:53.454Z,2.80
2022-08-03T15:13:21.744Z,3.90
2022-08-03T15:15:51.802Z,3.53
2022-08-03T15:18:21.137Z,2.43
2022-08-03T15:20:50.583Z,2.00
2022-08-03T15:23:19.188Z,2.40
2022-08-03T15:26:03.631Z,4.33
2022-08-03T15:28:37.856Z,2.77
2022-08-03T15:31:07.173Z,1.90
2022-08-03T15:33:35.400Z,2.43
2022-08-03T15:36:04.084Z,2.57
2022-08-03T15:38:32.129Z,2.20
2022-08-03T15:41:00.361Z,2.20
2022-08-03T15:43:28.373Z,1.80
2022-08-03T15:46:27.598Z,2.70
2022-08-03T15:48:47.178Z,2.50
2022-08-03T15:51:15.547Z,2.27
2022-08-03T15:53:43.732Z,2.50
2022-08-03T15:56:18.129Z,2.20
2022-08-03T15:59:09.356Z,2.13
2022-08-03T16:01:36.367Z,1.90
2022-08-03T16:04:04.697Z,2.67
2022-08-03T16:06:35.069Z,2.33
2022-08-03T16:09:23.097Z,2.63
2022-08-03T16:11:54.466Z,2.93
2022-08-03T16:14:33.537Z,2.47
2022-08-03T16:17:05.466Z,2.77
2022-08-03T16:19:33.706Z,3.63
2022-08-03T16:22:01.728Z,1.63
2022-08-03T16:24:31.787Z,2.70
2022-08-03T16:27:00.450Z,2.07
2022-08-03T16:29:29.491Z,3.50
2022-08-03T16:31:57.706Z,2.70
2022-08-03T16:34:27.099Z,2.27
2022-08-03T16:36:55.702Z,2.73
2022-08-03T16:39:23.851Z,1.83
2022-08-03T16:41:54.436Z,2.20
2022-08-03T16:44:31.075Z,2.20
2022-08-03T16:46:59.637Z,3.53
2022-08-03T16:49:54.162Z,4.17
2022-08-03T16:52:18.098Z,2.53
2022-08-03T16:54:53.118Z,2.27
2022-08-03T16:57:56.012Z,2.13
2022-08-03T17:00:33.939Z,2.40
2022-08-03T17:03:04.088Z,2.33
2022-08-03T17:05:47.441Z,3.53
2022-08-03T17:08:16.193Z,2.13
2022-08-03T17:10:47.036Z,2.77
2022-08-03T17:13:15.237Z,2.70
2022-08-03T17:16:00.665Z,2.43
2022-08-03T17:18:35.247Z,2.80
2022-08-03T17:21:06.060Z,2.50
2022-08-03T17:23:42.167Z,2.30
2022-08-03T17:26:21.178Z,2.67
2022-08-03T17:28:58.372Z,2.87
2022-08-03T17:31:31.843Z,3.50
2022-08-03T17:34:04.466Z,2.40
2022-08-03T17:37:02.223Z,2.83
2022-08-03T17:39:41.904Z,2.30
2022-08-03T17:42:30.466Z,3.63
2022-08-03T17:45:01.712Z,2.40
2022-08-03T17:47:57.283Z,2.40
2022-08-03T17:50:34.155Z,2.67
2022-08-03T17:53:23.950Z,2.80
2022-08-03T17:56:04.572Z,2.73
2022-08-03T17:58:45.828Z,2.40
2022-08-03T18:02:02.589Z,3.63
2022-08-03T18:04:34.553Z,3.00
2022-08-03T18:07:11.186Z,3.50
2022-08-03T18:10:04.945Z,2.30
2022-08-03T18:12:42.548Z,4.90
2022-08-03T18:15:21.284Z,4.47
2022-08-03T18:17:55.987Z,2.40
2022-08-03T18:20:40.873Z,4.00
2022-08-03T18:23:11.402Z,4.40
2022-08-03T18:25:59.210Z,3.03
2022-08-03T18:28:28.864Z,2.73
2022-08-03T18:30:57.789Z,2.50
2022-08-03T18:34:19.774Z,3.20
2022-08-03T18:36:30.534Z,3.10
2022-08-03T18:39:14.097Z,3.83
2022-08-03T18:42:01.413Z,5.10
2022-08-03T18:44:38.108Z,8.47
2022-08-03T18:47:50.841Z,5.87
2022-08-03T18:50:27.045Z,3.40
2022-08-03T18:53:03.625Z,4.37
2022-08-03T18:55:35.278Z,3.73
2022-08-03T18:58:18.172Z,3.50
2022-08-03T19:00:54.305Z,3.60
2022-08-03T19:03:41.582Z,3.93
2022-08-03T19:06:20.047Z,4.80
2022-08-03T19:08:53.524Z,4.67
2022-08-03T19:11:27.871Z,3.93
2022-08-03T19:14:00.356Z,5.10
2022-08-03T19:16:35.506Z,4.67
2022-08-03T19:19:14.534Z,4.60
2022-08-03T19:21:45.997Z,5.70
2022-08-03T19:24:22.242Z,6.83
2022-08-03T19:26:56.020Z,7.60
2022-08-03T19:29:59.386Z,7.03
2022-08-03T19:32:15.741Z,5.43
2022-08-03T19:34:46.605Z,7.23
2022-08-03T19:37:15.636Z,5.80
2022-08-03T19:39:44.473Z,4.33
2022-08-03T19:42:31.249Z,5.37
2022-08-03T19:45:13.939Z,5.67
2022-08-03T19:47:46.974Z,4.70
2022-08-03T19:50:16.334Z,4.87
2022-08-03T19:52:51.579Z,4.67
2022-08-03T19:55:52.976Z,5.47
2022-08-03T19:58:36.559Z,5.80
2022-08-03T20:01:19.216Z,5.37
2022-08-03T20:03:52.219Z,5.30
2022-08-03T20:06:25.308Z,6.03
2022-08-03T20:08:55.032Z,6.90
2022-08-03T20:11:28.814Z,6.70
2022-08-03T20:13:58.679Z,4.67
2022-08-03T20:16:28.235Z,5.40
2022-08-03T20:19:02.916Z,5.30
2022-08-03T20:21:46.932Z,7.00
2022-08-03T20:24:24.449Z,4.70
2022-08-03T20:26:54.641Z,7.77
2022-08-03T20:30:04.852Z,4.67
2022-08-03T20:32:20.060Z,3.30
2022-08-03T20:34:53.357Z,3.67
2022-08-03T20:37:21.487Z,3.87
2022-08-03T20:39:49.947Z,5.40
2022-08-03T20:42:21.417Z,3.07
2022-08-03T20:45:05.127Z,6.53
2022-08-03T20:47:41.606Z,3.97
2022-08-03T20:50:22.107Z,3.27
2022-08-03T20:52:50.776Z,6.10
2022-08-03T20:55:20.387Z,3.23
2022-08-03T20:58:08.241Z,5.73
2022-08-03T21:00:36.437Z,3.43
2022-08-03T21:03:06.814Z,4.40
2022-08-03T21:05:48.354Z,3.73
2022-08-03T21:08:22.033Z,4.50
2022-08-03T21:10:51.864Z,4.20
2022-08-03T21:13:25.693Z,4.10
2022-08-03T21:16:06.045Z,3.27
2022-08-03T21:18:47.214Z,2.60
2022-08-03T21:21:17.622Z,3.57
2022-08-03T21:23:49.772Z,2.60
2022-08-03T21:26:19.855Z,2.60
2022-08-03T21:28:49.252Z,4.00
2022-08-03T21:31:24.750Z,2.63
2022-08-03T21:33:57.405Z,3.77
2022-08-03T21:36:28.281Z,3.77
2022-08-03T21:38:57.390Z,3.17
2022-08-03T21:41:26.840Z,3.33
2022-08-03T21:43:54.994Z,4.43
2022-08-03T21:46:23.884Z,2.40
2022-08-03T21:49:51.893Z,3.40
2022-08-03T21:51:49.777Z,6.13
2022-08-03T21:54:18.831Z,3.20
2022-08-03T21:56:48.660Z,3.03
2022-08-03T21:59:19.312Z,3.63
2022-08-03T22:01:51.426Z,3.47
2022-08-03T22:04:50.801Z,3.23
2022-08-03T22:07:13.906Z,3.13
2022-08-03T22:09:51.433Z,3.07
2022-08-03T22:12:22.847Z,4.87
2022-08-03T22:15:01.400Z,3.43
2022-08-03T22:17:55.240Z,7.10
2022-08-03T22:20:22.557Z,3.40
2022-08-03T22:22:55.880Z,3.07
2022-08-03T22:25:28.808Z,2.77
2022-08-03T22:27:59.149Z,3.43
2022-08-03T22:30:28.353Z,3.43
2022-08-03T22:32:57.559Z,4.17
2022-08-03T22:35:28.315Z,3.70
2022-08-03T22:37:59.527Z,3.90
2022-08-03T22:40:28.748Z,5.23
2022-08-03T22:42:57.724Z,4.83
2022-08-03T22:46:10.029Z,4.60
2022-08-03T22:48:17.409Z,4.60
2022-08-03T22:50:47.781Z,5.20
2022-08-03T22:53:18.682Z,4.23
2022-08-03T22:55:48.445Z,3.90
2022-08-03T22:58:16.792Z,3.73
2022-08-03T23:00:48.495Z,3.37
2022-08-03T23:03:24.823Z,3.57
2022-08-03T23:06:00.649Z,3.83
2022-08-03T23:08:33.881Z,4.00
2022-08-03T23:11:08.374Z,6.30
2022-08-03T23:13:40.027Z,4.00
2022-08-03T23:16:09.759Z,3.83
2022-08-03T23:18:40.572Z,5.13
2022-08-03T23:21:11.209Z,4.10
2022-08-03T23:23:43.835Z,3.50
2022-08-03T23:26:14.022Z,4.00
2022-08-03T23:28:46.088Z,4.43
2022-08-03T23:31:15.716Z,4.30
2022-08-03T23:33:46.015Z,4.67
2022-08-03T23:36:30.704Z,5.57
2022-08-03T23:39:02.591Z,4.20
2022-08-03T23:41:31.171Z,4.67
2022-08-03T23:44:01.833Z,3.93
2022-08-03T23:46:31.990Z,4.70
2022-08-03T23:49:00.731Z,4.43
2022-08-03T23:51:39.996Z,4.03
2022-08-03T23:54:17.401Z,4.07
2022-08-03T23:56:53.831Z,4.50
2022-08-03T23:59:32.339Z,3.83
